sensor_id;sensor_type;location;lat;lon;timestamp;P1;durP1;ratioP1;P2;durP2;ratioP2
39340;SDS011;25059;52.132;21.062;2023-06-22T05:34:36;0.10;;;0.10;;
39340;SDS011;25059;52.132;21.062;2023-06-22T05:37:23;0.10;;;0.10;;
39340;SDS011;25059;52.132;21.062;2023-06-22T05:40:08;0.10;;;0.10;;
39340;SDS011;25059;52.132;21.062;2023-06-22T05:42:54;0.10;;;0.10;;
39340;SDS011;25059;52.132;21.062;2023-06-22T05:45:38;0.15;;;0.15;;
39340;SDS011;25059;52.132;21.062;2023-06-22T05:48:23;0.10;;;0.10;;
39340;SDS011;25059;52.132;21.062;2023-06-22T05:51:08;0.10;;;0.10;;
39340;SDS011;25059;52.132;21.062;2023-06-22T05:53:52;0.10;;;0.10;;
39340;SDS011;25059;52.132;21.062;2023-06-22T05:56:37;0.10;;;0.10;;
39340;SDS011;25059;52.132;21.062;2023-06-22T05:59:21;0.10;;;0.10;;
39340;SDS011;25059;52.132;21.062;2023-06-22T06:02:06;0.10;;;0.10;;
39340;SDS011;25059;52.132;21.062;2023-06-22T06:04:51;0.10;;;0.10;;
39340;SDS011;25059;52.132;21.062;2023-06-22T06:07:36;0.20;;;0.20;;
39340;SDS011;25059;52.132;21.062;2023-06-22T06:10:21;0.00;;;0.00;;
39340;SDS011;25059;52.132;21.062;2023-06-22T06:13:06;0.10;;;0.10;;
39340;SDS011;25059;52.132;21.062;2023-06-22T06:15:51;0.10;;;0.10;;
39340;SDS011;25059;52.132;21.062;2023-06-22T06:18:35;0.10;;;0.10;;
39340;SDS011;25059;52.132;21.062;2023-06-22T06:21:22;0.10;;;0.10;;
39340;SDS011;25059;52.132;21.062;2023-06-22T06:24:06;0.10;;;0.10;;
39340;SDS011;25059;52.132;21.062;2023-06-22T06:26:51;0.10;;;0.10;;
39340;SDS011;25059;52.132;21.062;2023-06-22T06:29:36;0.10;;;0.10;;
39340;SDS011;25059;52.132;21.062;2023-06-22T06:32:23;0.10;;;0.10;;
39340;SDS011;25059;52.132;21.062;2023-06-22T06:35:10;0.10;;;0.10;;
39340;SDS011;25059;52.132;21.062;2023-06-22T06:37:56;0.10;;;0.10;;
39340;SDS011;25059;52.132;21.062;2023-06-22T06:40:44;0.10;;;0.10;;
39340;SDS011;25059;52.132;21.062;2023-06-22T06:43:29;0.10;;;0.10;;
39340;SDS011;25059;52.132;21.062;2023-06-22T06:46:14;0.10;;;0.10;;
39340;SDS011;25059;52.132;21.062;2023-06-22T06:49:00;0.10;;;0.10;;
39340;SDS011;25059;52.132;21.062;2023-06-22T06:51:44;0.10;;;0.10;;
39340;SDS011;25059;52.132;21.062;2023-06-22T06:54:29;0.10;;;0.10;;
39340;SDS011;25059;52.132;21.062;2023-06-22T06:57:13;0.10;;;0.10;;
39340;SDS011;25059;52.132;21.062;2023-06-22T07:00:00;0.03;;;0.03;;
39340;SDS011;25059;52.132;21.062;2023-06-22T07:02:44;0.10;;;0.10;;
39340;SDS011;25059;52.132;21.062;2023-06-22T07:05:32;0.10;;;0.10;;
39340;SDS011;25059;52.132;21.062;2023-06-22T07:08:17;0.10;;;0.10;;
39340;SDS011;25059;52.132;21.062;2023-06-22T07:11:01;0.10;;;0.10;;
39340;SDS011;25059;52.132;21.062;2023-06-22T07:13:46;0.10;;;0.10;;
39340;SDS011;25059;52.132;21.062;2023-06-22T07:16:34;0.10;;;0.10;;
39340;SDS011;25059;52.132;21.062;2023-06-22T07:19:24;0.10;;;0.10;;
39340;SDS011;25059;52.132;21.062;2023-06-22T07:22:10;0.03;;;0.03;;
39340;SDS011;25059;52.132;21.062;2023-06-22T07:24:54;0.10;;;0.10;;
39340;SDS011;25059;52.132;21.062;2023-06-22T07:27:45;0.10;;;0.10;;
39340;SDS011;25059;52.132;21.062;2023-06-22T07:30:32;0.10;;;0.10;;
39340;SDS011;25059;52.132;21.062;2023-06-22T07:33:18;0.10;;;0.10;;
39340;SDS011;25059;52.132;21.062;2023-06-22T07:36:03;0.10;;;0.10;;
39340;SDS011;25059;52.132;21.062;2023-06-22T07:41:38;0.00;;;0.00;;
39340;SDS011;25059;52.132;21.062;2023-06-22T07:44:25;0.10;;;0.10;;
39340;SDS011;25059;52.132;21.062;2023-06-22T07:47:10;0.10;;;0.10;;
39340;SDS011;25059;52.132;21.062;2023-06-22T07:49:55;0.10;;;0.10;;
39340;SDS011;25059;52.132;21.062;2023-06-22T07:52:41;0.10;;;0.10;;
39340;SDS011;25059;52.132;21.062;2023-06-22T07:55:29;0.10;;;0.10;;
39340;SDS011;25059;52.132;21.062;2023-06-22T07:58:14;0.08;;;0.08;;
39340;SDS011;25059;52.132;21.062;2023-06-22T08:01:00;0.10;;;0.10;;
39340;SDS011;25059;52.132;21.062;2023-06-22T08:03:44;0.10;;;0.10;;
39340;SDS011;25059;52.132;21.062;2023-06-22T08:07:13;0.10;;;0.10;;
39340;SDS011;25059;52.132;21.062;2023-06-22T08:09:58;0.10;;;0.10;;
39340;SDS011;25059;52.132;21.062;2023-06-22T08:12:43;0.10;;;0.10;;
39340;SDS011;25059;52.132;21.062;2023-06-22T08:15:30;0.10;;;0.10;;
39340;SDS011;25059;52.132;21.062;2023-06-22T08:18:17;0.10;;;0.10;;
39340;SDS011;25059;52.132;21.062;2023-06-22T08:21:02;0.10;;;0.10;;
39340;SDS011;25059;52.132;21.062;2023-06-22T08:23:49;0.10;;;0.10;;
39340;SDS011;25059;52.132;21.062;2023-06-22T08:26:35;0.10;;;0.10;;
39340;SDS011;25059;52.132;21.062;2023-06-22T08:29:22;0.10;;;0.10;;
39340;SDS011;25059;52.132;21.062;2023-06-22T08:32:07;0.00;;;0.00;;
39340;SDS011;25059;52.132;21.062;2023-06-22T08:34:54;0.10;;;0.10;;
39340;SDS011;25059;52.132;21.062;2023-06-22T08:37:39;0.10;;;0.10;;
39340;SDS011;25059;52.132;21.062;2023-06-22T08:40:24;0.03;;;0.03;;
39340;SDS011;25059;52.132;21.062;2023-06-22T08:43:09;0.10;;;0.10;;
39340;SDS011;25059;52.132;21.062;2023-06-22T08:45:54;0.10;;;0.10;;
39340;SDS011;25059;52.132;21.062;2023-06-22T08:48:38;0.10;;;0.10;;
39340;SDS011;25059;52.132;21.062;2023-06-22T08:51:29;0.10;;;0.10;;
39340;SDS011;25059;52.132;21.062;2023-06-22T08:54:14;0.10;;;0.10;;
39340;SDS011;25059;52.132;21.062;2023-06-22T08:56:59;0.10;;;0.10;;
39340;SDS011;25059;52.132;21.062;2023-06-22T08:59:47;0.10;;;0.10;;
39340;SDS011;25059;52.132;21.062;2023-06-22T09:02:31;0.10;;;0.10;;
39340;SDS011;25059;52.132;21.062;2023-06-22T09:05:16;0.10;;;0.10;;
39340;SDS011;25059;52.132;21.062;2023-06-22T09:08:01;0.10;;;0.10;;
39340;SDS011;25059;52.132;21.062;2023-06-22T09:10:45;0.10;;;0.10;;
39340;SDS011;25059;52.132;21.062;2023-06-22T09:13:31;0.10;;;0.10;;
39340;SDS011;25059;52.132;21.062;2023-06-22T09:16:17;0.10;;;0.10;;
39340;SDS011;25059;52.132;21.062;2023-06-22T09:19:02;0.10;;;0.10;;
39340;SDS011;25059;52.132;21.062;2023-06-22T09:21:51;0.10;;;0.10;;
39340;SDS011;25059;52.132;21.062;2023-06-22T09:24:36;0.00;;;0.00;;
39340;SDS011;25059;52.132;21.062;2023-06-22T09:27:21;0.10;;;0.10;;
39340;SDS011;25059;52.132;21.062;2023-06-22T09:30:06;0.10;;;0.10;;
39340;SDS011;25059;52.132;21.062;2023-06-22T09:32:51;0.10;;;0.10;;
39340;SDS011;25059;52.132;21.062;2023-06-22T09:38:48;0.10;;;0.10;;
39340;SDS011;25059;52.132;21.062;2023-06-22T09:41:33;0.10;;;0.10;;
39340;SDS011;25059;52.132;21.062;2023-06-22T09:44:18;0.10;;;0.10;;
39340;SDS011;25059;52.132;21.062;2023-06-22T09:47:02;0.10;;;0.10;;
39340;SDS011;25059;52.132;21.062;2023-06-22T09:49:47;0.03;;;0.03;;
39340;SDS011;25059;52.132;21.062;2023-06-22T09:52:32;0.10;;;0.10;;
39340;SDS011;25059;52.132;21.062;2023-06-22T09:55:16;0.08;;;0.08;;
39340;SDS011;25059;52.132;21.062;2023-06-22T09:58:01;0.10;;;0.10;;
39340;SDS011;25059;52.132;21.062;2023-06-22T10:00:46;0.10;;;0.10;;
39340;SDS011;25059;52.132;21.062;2023-06-22T10:03:33;0.10;;;0.10;;
39340;SDS011;25059;52.132;21.062;2023-06-22T10:06:18;0.05;;;0.05;;
39340;SDS011;25059;52.132;21.062;2023-06-22T10:09:03;0.03;;;0.03;;
39340;SDS011;25059;52.132;21.062;2023-06-22T10:11:48;0.08;;;0.08;;
39340;SDS011;25059;52.132;21.062;2023-06-22T10:14:32;0.10;;;0.10;;
39340;SDS011;25059;52.132;21.062;2023-06-22T10:17:17;0.10;;;0.10;;
39340;SDS011;25059;52.132;21.062;2023-06-22T10:20:02;0.10;;;0.10;;
39340;SDS011;25059;52.132;21.062;2023-06-22T10:22:53;0.10;;;0.10;;
39340;SDS011;25059;52.132;21.062;2023-06-22T10:25:38;0.10;;;0.10;;
39340;SDS011;25059;52.132;21.062;2023-06-22T10:28:22;0.10;;;0.10;;
39340;SDS011;25059;52.132;21.062;2023-06-22T10:31:07;0.10;;;0.10;;
39340;SDS011;25059;52.132;21.062;2023-06-22T10:34:01;0.20;;;0.20;;
39340;SDS011;25059;52.132;21.062;2023-06-22T10:36:45;0.10;;;0.10;;
39340;SDS011;25059;52.132;21.062;2023-06-22T10:39:32;0.17;;;0.17;;
39340;SDS011;25059;52.132;21.062;2023-06-22T10:42:17;0.28;;;0.28;;
39340;SDS011;25059;52.132;21.062;2023-06-22T10:45:02;0.30;;;0.30;;
39340;SDS011;25059;52.132;21.062;2023-06-22T10:47:47;0.38;;;0.38;;
39340;SDS011;25059;52.132;21.062;2023-06-22T10:50:32;0.45;;;0.45;;
39340;SDS011;25059;52.132;21.062;2023-06-22T10:53:17;0.40;;;0.40;;
39340;SDS011;25059;52.132;21.062;2023-06-22T10:56:01;0.47;;;0.47;;
39340;SDS011;25059;52.132;21.062;2023-06-22T10:58:46;0.38;;;0.38;;
39340;SDS011;25059;52.132;21.062;2023-06-22T11:01:30;0.40;;;0.40;;
39340;SDS011;25059;52.132;21.062;2023-06-22T11:04:15;0.63;;;0.63;;
39340;SDS011;25059;52.132;21.062;2023-06-22T11:07:02;0.75;;;0.75;;
39340;SDS011;25059;52.132;21.062;2023-06-22T11:09:46;0.60;;;0.60;;
39340;SDS011;25059;52.132;21.062;2023-06-22T11:15:19;0.70;;;0.70;;
39340;SDS011;25059;52.132;21.062;2023-06-22T11:18:04;0.60;;;0.60;;
39340;SDS011;25059;52.132;21.062;2023-06-22T11:23:54;0.70;;;0.70;;
39340;SDS011;25059;52.132;21.062;2023-06-22T11:26:38;0.55;;;0.55;;
39340;SDS011;25059;52.132;21.062;2023-06-22T11:29:23;0.50;;;0.50;;
39340;SDS011;25059;52.132;21.062;2023-06-22T11:32:08;0.60;;;0.60;;
39340;SDS011;25059;52.132;21.062;2023-06-22T11:34:53;0.65;;;0.65;;
39340;SDS011;25059;52.132;21.062;2023-06-22T11:37:37;0.80;;;0.80;;
39340;SDS011;25059;52.132;21.062;2023-06-22T11:40:23;0.65;;;0.65;;
39340;SDS011;25059;52.132;21.062;2023-06-22T11:43:07;0.63;;;0.63;;
39340;SDS011;25059;52.132;21.062;2023-06-22T11:45:52;0.70;;;0.70;;
39340;SDS011;25059;52.132;21.062;2023-06-22T11:48:37;0.70;;;0.70;;
39340;SDS011;25059;52.132;21.062;2023-06-22T11:51:22;0.60;;;0.60;;
39340;SDS011;25059;52.132;21.062;2023-06-22T11:54:06;0.70;;;0.70;;
39340;SDS011;25059;52.132;21.062;2023-06-22T11:56:51;0.60;;;0.60;;
39340;SDS011;25059;52.132;21.062;2023-06-22T11:59:35;0.85;;;0.85;;
39340;SDS011;25059;52.132;21.062;2023-06-22T12:02:20;0.65;;;0.65;;
39340;SDS011;25059;52.132;21.062;2023-06-22T12:05:07;0.60;;;0.60;;
39340;SDS011;25059;52.132;21.062;2023-06-22T12:07:53;0.82;;;0.82;;
39340;SDS011;25059;52.132;21.062;2023-06-22T12:10:38;0.50;;;0.50;;
39340;SDS011;25059;52.132;21.062;2023-06-22T12:13:23;0.50;;;0.50;;
39340;SDS011;25059;52.132;21.062;2023-06-22T12:16:07;0.60;;;0.60;;
39340;SDS011;25059;52.132;21.062;2023-06-22T12:18:52;0.60;;;0.60;;
39340;SDS011;25059;52.132;21.062;2023-06-22T12:21:38;0.60;;;0.60;;
39340;SDS011;25059;52.132;21.062;2023-06-22T12:24:24;0.75;;;0.75;;
39340;SDS011;25059;52.132;21.062;2023-06-22T12:27:08;0.95;;;0.95;;
39340;SDS011;25059;52.132;21.062;2023-06-22T12:29:54;0.77;;;0.77;;
39340;SDS011;25059;52.132;21.062;2023-06-22T12:32:39;0.85;;;0.85;;
39340;SDS011;25059;52.132;21.062;2023-06-22T12:35:24;0.70;;;0.70;;
39340;SDS011;25059;52.132;21.062;2023-06-22T12:38:08;0.60;;;0.60;;
39340;SDS011;25059;52.132;21.062;2023-06-22T12:40:53;0.60;;;0.60;;
39340;SDS011;25059;52.132;21.062;2023-06-22T12:43:37;0.73;;;0.73;;
39340;SDS011;25059;52.132;21.062;2023-06-22T12:46:22;0.80;;;0.80;;
39340;SDS011;25059;52.132;21.062;2023-06-22T12:49:06;0.80;;;0.80;;
39340;SDS011;25059;52.132;21.062;2023-06-22T12:51:51;0.80;;;0.80;;
39340;SDS011;25059;52.132;21.062;2023-06-22T12:54:36;0.73;;;0.73;;
39340;SDS011;25059;52.132;21.062;2023-06-22T12:57:21;0.70;;;0.70;;
39340;SDS011;25059;52.132;21.062;2023-06-22T13:00:06;0.80;;;0.80;;
39340;SDS011;25059;52.132;21.062;2023-06-22T13:06:03;0.45;;;0.45;;
39340;SDS011;25059;52.132;21.062;2023-06-22T13:08:48;0.70;;;0.70;;
39340;SDS011;25059;52.132;21.062;2023-06-22T13:11:32;1.00;;;1.00;;
39340;SDS011;25059;52.132;21.062;2023-06-22T13:14:17;0.90;;;0.90;;
39340;SDS011;25059;52.132;21.062;2023-06-22T13:17:02;0.63;;;0.63;;
39340;SDS011;25059;52.132;21.062;2023-06-22T13:19:47;0.70;;;0.70;;
39340;SDS011;25059;52.132;21.062;2023-06-22T13:22:32;0.60;;;0.60;;
39340;SDS011;25059;52.132;21.062;2023-06-22T13:25:23;0.60;;;0.60;;
39340;SDS011;25059;52.132;21.062;2023-06-22T13:28:10;0.80;;;0.80;;
39340;SDS011;25059;52.132;21.062;2023-06-22T13:30:57;0.77;;;0.77;;
39340;SDS011;25059;52.132;21.062;2023-06-22T13:33:49;0.75;;;0.75;;
39340;SDS011;25059;52.132;21.062;2023-06-22T13:36:36;0.75;;;0.75;;
39340;SDS011;25059;52.132;21.062;2023-06-22T13:39:21;0.80;;;0.80;;
39340;SDS011;25059;52.132;21.062;2023-06-22T13:42:06;0.80;;;0.80;;
39340;SDS011;25059;52.132;21.062;2023-06-22T13:44:51;0.70;;;0.70;;
39340;SDS011;25059;52.132;21.062;2023-06-22T13:47:36;0.80;;;0.80;;
39340;SDS011;25059;52.132;21.062;2023-06-22T13:50:21;0.98;;;0.98;;
39340;SDS011;25059;52.132;21.062;2023-06-22T13:53:06;0.70;;;0.70;;
39340;SDS011;25059;52.132;21.062;2023-06-22T13:59:18;0.70;;;0.70;;
39340;SDS011;25059;52.132;21.062;2023-06-22T14:02:04;0.70;;;0.70;;
39340;SDS011;25059;52.132;21.062;2023-06-22T14:04:48;0.65;;;0.65;;
39340;SDS011;25059;52.132;21.062;2023-06-22T14:07:33;0.73;;;0.73;;
39340;SDS011;25059;52.132;21.062;2023-06-22T14:10:18;0.77;;;0.77;;
39340;SDS011;25059;52.132;21.062;2023-06-22T14:13:02;0.80;;;0.80;;
39340;SDS011;25059;52.132;21.062;2023-06-22T14:15:50;0.57;;;0.57;;
39340;SDS011;25059;52.132;21.062;2023-06-22T14:18:36;0.70;;;0.70;;
39340;SDS011;25059;52.132;21.062;2023-06-22T14:21:20;0.80;;;0.80;;
39340;SDS011;25059;52.132;21.062;2023-06-22T14:24:05;0.90;;;0.90;;
39340;SDS011;25059;52.132;21.062;2023-06-22T14:29:53;0.73;;;0.73;;
39340;SDS011;25059;52.132;21.062;2023-06-22T14:32:38;0.70;;;0.70;;
39340;SDS011;25059;52.132;21.062;2023-06-22T14:35:22;0.68;;;0.68;;
39340;SDS011;25059;52.132;21.062;2023-06-22T14:38:08;0.80;;;0.80;;
39340;SDS011;25059;52.132;21.062;2023-06-22T14:40:52;0.70;;;0.70;;
39340;SDS011;25059;52.132;21.062;2023-06-22T14:43:37;0.73;;;0.73;;
39340;SDS011;25059;52.132;21.062;2023-06-22T14:46:22;0.52;;;0.52;;
39340;SDS011;25059;52.132;21.062;2023-06-22T14:49:06;0.70;;;0.70;;
39340;SDS011;25059;52.132;21.062;2023-06-22T14:51:51;0.63;;;0.63;;
39340;SDS011;25059;52.132;21.062;2023-06-22T14:54:39;0.60;;;0.60;;
39340;SDS011;25059;52.132;21.062;2023-06-22T14:57:24;0.60;;;0.60;;
39340;SDS011;25059;52.132;21.062;2023-06-22T15:00:14;0.47;;;0.47;;
39340;SDS011;25059;52.132;21.062;2023-06-22T15:03:03;0.50;;;0.50;;
39340;SDS011;25059;52.132;21.062;2023-06-22T15:05:51;0.70;;;0.70;;
39340;SDS011;25059;52.132;21.062;2023-06-22T15:08:37;0.43;;;0.43;;
39340;SDS011;25059;52.132;21.062;2023-06-22T15:11:23;0.30;;;0.30;;
39340;SDS011;25059;52.132;21.062;2023-06-22T15:14:07;0.30;;;0.30;;
39340;SDS011;25059;52.132;21.062;2023-06-22T15:16:57;0.20;;;0.20;;
39340;SDS011;25059;52.132;21.062;2023-06-22T15:19:43;0.30;;;0.30;;
39340;SDS011;25059;52.132;21.062;2023-06-22T15:22:29;0.38;;;0.38;;
39340;SDS011;25059;52.132;21.062;2023-06-22T15:25:19;0.40;;;0.40;;
39340;SDS011;25059;52.132;21.062;2023-06-22T15:31:47;0.25;;;0.25;;
